Huvudsida
METAR-TAF:

METAR-TAF

Flygplatser :

Tahiti, Franska Polynesien

latitud: 17-33S, longitud: 149-37W, höjd: 2 m

Aktuellt väderrapport

Denna rapport gjordes för 24 minuter sedan, klockan 21:08 UTC
Vind 2 kt varierande vindriktning
Temperatur 30°C
Fuktighet 66%
Tryck 1014 hPa
Sikt 10 km eller mer
Spridda moln på en höjd av 2300 ft
Spridda moln på en höjd av 30000 ft

METAR: NTAA 192108Z VRB02KT 9999 SCT023 SCT300 30/23 Q1014 WS R22 NOSIG

Tid: 11:32 (21:32 UTC)

Väderprognos

Denna rapport gjordes för 4 timmar och 32 minuter sedan, klockan 17:00 UTC
Prognos gäller från 19 kl. 18 UTC till 20 kl. 24 UTC
Vind 5 kt varierande vindriktning
Sikt 10 km eller mer
Få moln på en höjd av 2300 ft
Spridda moln på en höjd av 5000 ft
Blir
från 19 kl. 18 UTC till 19 kl. 20 UTC
Vind 15 kt från nordost
Blir
från 20 kl. 04 UTC till 20 kl. 06 UTC
Vind 5 kt varierande vindriktning

TAF: NTAA 191700Z 1918/2024 VRB05KT 9999 FEW023 SCT050 BECMG 1918/1920 04015KT BECMG 2004/2006 VRB05KT

Aktuella väderrapporter och prognoser från 4000 flygplatser (METAR- och TAF-rapporter).

De tillgängliga stationerna syns som gula och röda prickar på kartan.

För musen över prickarna för att se namnen på stationerna.

Klicka sedan för att få väderrapporter och prognoser.

För att ändra kartan: Klicka på de gröna knapparna med ett svart kors på för att zooma in; den gröna knappen med ett streck på för att zooma ut; eller på de gröna pilarna för angränsande kartor.


METAR-TAF: